Time;durP1;ratioP1;P1;durP2;ratioP2;P2;SDS_P1;SDS_P2;PMS_P1;PMS_P2;Temp;Humidity;BMP_temperature;BMP_pressure;BME280_temperature;BME280_humidity;BME280_pressure;Samples;Min_cycle;Max_cycle;Signal;HPM_P1;HPM_P2
2021/11/16 00:01:59;;;;;;;64.03;23.85;;;;;;;;;;5022365;28;20080;-82
2021/11/16 00:04:26;;;;;;;69.70;27.15;;;;;;;;;;5022066;28;20085;-83
2021/11/16 00:06:53;;;;;;;75.68;29.33;;;;;;;;;;5021788;28;20554;-82
2021/11/16 00:09:21;;;;;;;70.00;28.67;;;;;;;;;;5021242;28;20088;-83
2021/11/16 00:11:47;;;;;;;69.50;27.23;;;;;;;;;;5024221;28;20045;-81
2021/11/16 00:14:16;;;;;;;60.03;27.35;;;;;;;;;;5021200;28;20050;-82
2021/11/16 00:16:42;;;;;;;63.33;26.73;;;;;;;;;;5020876;28;20049;-83
2021/11/16 00:19:12;;;;;;;59.28;25.90;;;;;;;;;;5021537;28;20052;-82
2021/11/16 00:21:41;;;;;;;62.13;23.92;;;;;;;;;;5021083;28;20038;-81
2021/11/16 00:24:12;;;;;;;58.17;25.80;;;;;;;;;;5022139;28;20042;-82
2021/11/16 00:26:38;;;;;;;63.75;24.88;;;;;;;;;;5022083;28;20399;-83
2021/11/16 00:29:05;;;;;;;64.95;25.45;;;;;;;;;;5022226;28;20042;-82
2021/11/16 00:31:33;;;;;;;63.13;25.73;;;;;;;;;;5022584;28;20061;-82
2021/11/16 00:34:00;;;;;;;64.10;28.27;;;;;;;;;;5019460;28;20052;-82
2021/11/16 00:36:27;;;;;;;66.53;29.08;;;;;;;;;;5019703;28;20050;-84
2021/11/16 00:38:53;;;;;;;61.25;25.80;;;;;;;;;;5021108;28;20046;-83
2021/11/16 00:41:20;;;;;;;62.70;25.58;;;;;;;;;;5021079;28;20096;-82
2021/11/16 00:43:46;;;;;;;64.70;28.65;;;;;;;;;;5019858;28;20065;-82
2021/11/16 00:46:13;;;;;;;65.68;27.85;;;;;;;;;;5018894;28;20466;-83
2021/11/16 00:48:41;;;;;;;67.63;27.02;;;;;;;;;;5021849;28;20046;-82
2021/11/16 00:51:08;;;;;;;62.85;25.13;;;;;;;;;;5020592;28;20073;-83
2021/11/16 00:53:36;;;;;;;64.30;24.55;;;;;;;;;;5020242;28;20049;-81
2021/11/16 00:56:05;;;;;;;56.22;24.30;;;;;;;;;;5020789;28;20081;-82
2021/11/16 00:58:31;;;;;;;57.22;23.65;;;;;;;;;;5019107;28;20069;-83
2021/11/16 01:00:58;;;;;;;55.20;24.08;;;;;;;;;;5019607;28;20050;-84
2021/11/16 01:03:26;;;;;;;59.55;23.92;;;;;;;;;;5020900;28;20053;-82
2021/11/16 01:05:55;;;;;;;51.88;23.13;;;;;;;;;;5020141;28;20096;-82
2021/11/16 01:08:22;;;;;;;56.75;23.55;;;;;;;;;;5020031;28;20066;-83
2021/11/16 01:10:49;;;;;;;51.75;22.23;;;;;;;;;;5019911;28;20081;-83
2021/11/16 01:13:17;;;;;;;53.42;22.00;;;;;;;;;;5020650;28;20058;-83
2021/11/16 01:15:44;;;;;;;60.35;24.33;;;;;;;;;;5019879;28;20076;-83
2021/11/16 01:18:12;;;;;;;60.38;24.83;;;;;;;;;;5017425;28;20041;-81
2021/11/16 01:20:40;;;;;;;48.65;20.92;;;;;;;;;;5019976;28;20042;-82
2021/11/16 01:23:10;;;;;;;51.35;23.42;;;;;;;;;;5019349;28;20073;-83
2021/11/16 01:25:39;;;;;;;55.47;24.17;;;;;;;;;;5020287;28;20548;-82
2021/11/16 01:28:08;;;;;;;52.30;23.38;;;;;;;;;;5019222;28;20041;-83
2021/11/16 01:30:35;;;;;;;50.97;22.55;;;;;;;;;;5018325;28;20046;-82
2021/11/16 01:33:05;;;;;;;60.85;22.90;;;;;;;;;;5021129;28;20041;-82
2021/11/16 01:35:33;;;;;;;57.97;24.70;;;;;;;;;;5020534;28;20058;-83
2021/11/16 01:37:59;;;;;;;57.67;22.30;;;;;;;;;;5018741;28;20046;-82
2021/11/16 01:40:27;;;;;;;54.65;24.33;;;;;;;;;;5018184;28;20077;-82
2021/11/16 01:42:54;;;;;;;46.35;20.85;;;;;;;;;;5018234;28;20064;-82
2021/11/16 01:45:22;;;;;;;54.85;22.35;;;;;;;;;;5018624;28;20666;-82
2021/11/16 01:47:50;;;;;;;54.28;20.23;;;;;;;;;;5019065;28;20046;-83
2021/11/16 01:50:18;;;;;;;48.70;21.27;;;;;;;;;;5018214;28;20430;-83
2021/11/16 01:52:45;;;;;;;47.92;21.63;;;;;;;;;;5019215;28;20151;-82
2021/11/16 01:55:13;;;;;;;49.67;20.80;;;;;;;;;;5018669;28;20062;-82
2021/11/16 01:57:42;;;;;;;45.40;20.55;;;;;;;;;;5019359;28;20084;-83
2021/11/16 02:00:13;;;;;;;53.15;22.00;;;;;;;;;;5020577;28;20045;-82
2021/11/16 02:02:40;;;;;;;42.30;20.42;;;;;;;;;;5019094;28;20498;-83
2021/11/16 02:05:08;;;;;;;56.15;22.40;;;;;;;;;;5019952;28;20100;-83
2021/11/16 02:07:35;;;;;;;51.72;21.60;;;;;;;;;;5019974;28;20073;-84
2021/11/16 02:10:01;;;;;;;48.08;21.15;;;;;;;;;;5017669;28;20074;-83
2021/11/16 02:12:28;;;;;;;45.17;20.58;;;;;;;;;;5020282;28;20050;-85
2021/11/16 02:14:56;;;;;;;52.15;21.42;;;;;;;;;;5018414;28;20088;-82
2021/11/16 02:17:22;;;;;;;53.53;20.85;;;;;;;;;;5018668;28;20077;-82
2021/11/16 02:19:49;;;;;;;47.90;18.90;;;;;;;;;;5018397;28;20775;-82
2021/11/16 02:22:17;;;;;;;45.95;21.45;;;;;;;;;;5017618;28;20069;-82
2021/11/16 02:24:44;;;;;;;40.83;19.05;;;;;;;;;;5019570;28;20069;-83
2021/11/16 02:27:10;;;;;;;45.58;20.40;;;;;;;;;;5017542;28;20657;-84
2021/11/16 02:29:37;;;;;;;44.20;17.60;;;;;;;;;;5018374;28;20069;-83
2021/11/16 02:32:04;;;;;;;42.35;17.52;;;;;;;;;;5018192;28;20065;-83
2021/11/16 02:34:31;;;;;;;49.80;19.67;;;;;;;;;;5015711;28;20073;-84
2021/11/16 02:36:57;;;;;;;39.78;17.52;;;;;;;;;;5018237;28;20050;-81
2021/11/16 02:39:25;;;;;;;43.85;18.15;;;;;;;;;;5018072;28;20069;-83
2021/11/16 02:41:54;;;;;;;44.50;18.65;;;;;;;;;;5017325;28;20474;-83
2021/11/16 02:44:23;;;;;;;43.15;17.67;;;;;;;;;;5017944;28;20069;-84
2021/11/16 02:46:51;;;;;;;41.95;18.95;;;;;;;;;;5017338;28;20072;-83
2021/11/16 02:49:18;;;;;;;45.08;19.98;;;;;;;;;;5017422;28;20041;-83
2021/11/16 02:51:45;;;;;;;35.00;17.63;;;;;;;;;;5020166;28;20145;-82
2021/11/16 02:54:15;;;;;;;39.38;17.50;;;;;;;;;;5017916;28;20038;-83
2021/11/16 02:56:43;;;;;;;41.60;20.35;;;;;;;;;;5016922;28;20050;-83
2021/11/16 02:59:11;;;;;;;43.55;18.98;;;;;;;;;;5015952;28;21740;-82
2021/11/16 03:01:38;;;;;;;35.45;16.63;;;;;;;;;;5020849;28;21240;-83
2021/11/16 03:04:05;;;;;;;39.17;17.58;;;;;;;;;;5017448;28;21429;-81
2021/11/16 03:06:32;;;;;;;38.13;18.38;;;;;;;;;;5017564;28;20074;-82
2021/11/16 03:08:59;;;;;;;35.47;16.17;;;;;;;;;;5017224;28;20435;-83
2021/11/16 03:11:26;;;;;;;40.40;17.80;;;;;;;;;;5018353;28;20038;-83
2021/11/16 03:13:54;;;;;;;35.03;16.00;;;;;;;;;;5017487;28;20049;-83
2021/11/16 03:16:24;;;;;;;37.38;16.85;;;;;;;;;;5016758;28;20054;-82
2021/11/16 03:18:52;;;;;;;37.28;17.92;;;;;;;;;;5016893;28;20085;-84
2021/11/16 03:21:20;;;;;;;34.78;15.02;;;;;;;;;;5017771;28;20069;-83
2021/11/16 03:23:50;;;;;;;34.45;15.77;;;;;;;;;;5015935;28;20045;-83
2021/11/16 03:26:17;;;;;;;37.70;16.20;;;;;;;;;;5015734;28;20042;-84
2021/11/16 03:28:48;;;;;;;39.72;16.42;;;;;;;;;;5020599;28;20071;-84
2021/11/16 03:31:20;;;;;;;37.75;16.42;;;;;;;;;;5022397;28;20052;-84
2021/11/16 03:33:47;;;;;;;35.17;16.67;;;;;;;;;;5021332;28;20042;-83
2021/11/16 03:36:14;;;;;;;35.65;15.57;;;;;;;;;;5020738;28;20073;-82
2021/11/16 03:38:42;;;;;;;36.22;16.52;;;;;;;;;;5019322;28;20046;-83
2021/11/16 03:41:10;;;;;;;40.53;15.68;;;;;;;;;;5020759;28;20050;-82
2021/11/16 03:43:36;;;;;;;38.83;15.65;;;;;;;;;;5021604;28;20046;-82
2021/11/16 03:46:03;;;;;;;38.58;15.73;;;;;;;;;;5020455;28;20046;-83
2021/11/16 03:48:31;;;;;;;36.95;16.65;;;;;;;;;;5021399;28;20066;-83
2021/11/16 03:50:58;;;;;;;37.85;17.40;;;;;;;;;;5021797;28;20070;-81
2021/11/16 03:53:25;;;;;;;36.10;16.42;;;;;;;;;;5019530;28;20084;-83
2021/11/16 03:55:51;;;;;;;33.78;15.63;;;;;;;;;;5020198;28;20080;-83
2021/11/16 03:58:22;;;;;;;31.50;14.70;;;;;;;;;;5022230;28;20077;-84
2021/11/16 04:00:51;;;;;;;34.28;14.65;;;;;;;;;;5022434;28;20084;-82
2021/11/16 04:03:18;;;;;;;33.75;15.13;;;;;;;;;;5020930;28;20054;-83
2021/11/16 04:05:47;;;;;;;30.85;13.40;;;;;;;;;;5018885;28;20046;-83
2021/11/16 04:08:14;;;;;;;33.13;14.32;;;;;;;;;;5021069;28;20057;-83
2021/11/16 04:10:41;;;;;;;34.15;15.40;;;;;;;;;;5020631;28;20046;-83
2021/11/16 04:13:08;;;;;;;39.38;17.17;;;;;;;;;;5021618;28;20104;-83
2021/11/16 04:15:35;;;;;;;40.80;15.77;;;;;;;;;;5021128;28;20077;-83
2021/11/16 04:18:02;;;;;;;32.47;13.80;;;;;;;;;;5019020;28;20045;-83
2021/11/16 04:20:32;;;;;;;36.92;15.88;;;;;;;;;;5018731;28;20069;-83
2021/11/16 04:23:01;;;;;;;32.15;14.48;;;;;;;;;;5020892;28;20060;-83
2021/11/16 04:25:28;;;;;;;27.77;13.65;;;;;;;;;;5021317;28;20041;-82
2021/11/16 04:27:55;;;;;;;28.60;13.65;;;;;;;;;;5020947;28;20050;-81
2021/11/16 04:30:24;;;;;;;37.55;14.85;;;;;;;;;;5019979;28;20049;-81
2021/11/16 04:32:51;;;;;;;32.50;14.48;;;;;;;;;;5019869;28;20072;-83
2021/11/16 04:35:18;;;;;;;34.15;14.95;;;;;;;;;;5019593;28;20049;-82
2021/11/16 04:37:47;;;;;;;33.40;14.10;;;;;;;;;;5020239;28;20044;-82
2021/11/16 04:40:19;;;;;;;32.75;14.00;;;;;;;;;;5019430;28;20046;-82
2021/11/16 04:42:46;;;;;;;31.73;13.30;;;;;;;;;;5019773;28;20100;-82
2021/11/16 04:45:17;;;;;;;33.33;14.65;;;;;;;;;;5018786;28;20052;-82
2021/11/16 04:47:49;;;;;;;31.33;15.68;;;;;;;;;;5020209;28;20041;-83
2021/11/16 04:50:26;;;;;;;28.98;12.50;;;;;;;;;;5019742;28;20077;-83
2021/11/16 04:53:00;;;;;;;29.80;12.85;;;;;;;;;;5018905;28;20046;-83
2021/11/16 04:55:44;;;;;;;34.30;14.55;;;;;;;;;;5018299;28;20045;-82
2021/11/16 05:03:41;;;;;;;33.40;13.23;;;;;;;;;;5020159;28;20080;-83
2021/11/16 05:06:07;;;;;;;31.05;12.27;;;;;;;;;;5017978;28;20081;-82
2021/11/16 05:08:34;;;;;;;31.00;13.73;;;;;;;;;;5019112;28;20090;-83
2021/11/16 05:11:02;;;;;;;33.30;13.68;;;;;;;;;;5019620;28;20042;-83
2021/11/16 05:13:28;;;;;;;37.97;13.82;;;;;;;;;;5018483;28;20082;-83
2021/11/16 05:15:55;;;;;;;33.15;14.07;;;;;;;;;;5017899;28;20069;-82
2021/11/16 05:18:21;;;;;;;28.38;13.35;;;;;;;;;;5019699;28;20566;-82
2021/11/16 05:20:48;;;;;;;27.80;12.25;;;;;;;;;;5019145;28;20072;-84
2021/11/16 05:23:17;;;;;;;34.90;14.77;;;;;;;;;;5018704;28;20471;-83
2021/11/16 05:25:49;;;;;;;28.95;12.70;;;;;;;;;;5018704;28;20132;-81
2021/11/16 05:28:17;;;;;;;31.23;13.00;;;;;;;;;;5019984;28;20109;-82
2021/11/16 05:30:44;;;;;;;30.58;13.25;;;;;;;;;;5019043;28;20080;-84
2021/11/16 05:33:10;;;;;;;29.55;13.65;;;;;;;;;;5020140;28;20085;-82
2021/11/16 05:35:37;;;;;;;32.38;11.95;;;;;;;;;;5019365;28;20081;-83
2021/11/16 05:38:03;;;;;;;32.65;13.20;;;;;;;;;;5018268;28;20080;-83
2021/11/16 05:40:31;;;;;;;35.83;13.93;;;;;;;;;;5020037;28;20062;-80
2021/11/16 05:42:58;;;;;;;28.33;14.02;;;;;;;;;;5020980;28;20117;-84
2021/11/16 05:45:26;;;;;;;30.98;14.23;;;;;;;;;;5021559;28;20042;-82
2021/11/16 05:47:53;;;;;;;28.75;12.07;;;;;;;;;;5018534;28;20068;-81
2021/11/16 05:50:20;;;;;;;33.17;13.32;;;;;;;;;;5019614;28;20116;-83
2021/11/16 05:52:47;;;;;;;28.90;14.00;;;;;;;;;;5018460;28;20042;-83
2021/11/16 05:55:13;;;;;;;27.83;12.70;;;;;;;;;;5019376;28;20049;-82
2021/11/16 05:57:40;;;;;;;29.98;12.05;;;;;;;;;;5020900;28;20424;-83
2021/11/16 06:00:09;;;;;;;29.02;13.00;;;;;;;;;;5019102;28;20038;-84
2021/11/16 06:02:37;;;;;;;31.38;13.55;;;;;;;;;;5021053;28;20071;-82
2021/11/16 06:05:04;;;;;;;28.80;12.18;;;;;;;;;;5020166;28;20038;-83
2021/11/16 06:07:31;;;;;;;32.50;12.60;;;;;;;;;;5019171;28;20649;-83
2021/11/16 06:09:57;;;;;;;32.53;12.82;;;;;;;;;;5019900;28;20049;-82
2021/11/16 06:12:24;;;;;;;25.15;11.38;;;;;;;;;;5019649;28;20076;-82
2021/11/16 06:14:50;;;;;;;28.95;12.30;;;;;;;;;;5019243;28;20053;-81
2021/11/16 06:17:20;;;;;;;26.88;12.50;;;;;;;;;;5019977;28;20085;-83
2021/11/16 06:19:48;;;;;;;27.10;11.70;;;;;;;;;;5016247;28;20133;-81
2021/11/16 06:22:14;;;;;;;23.63;10.52;;;;;;;;;;5019917;28;20410;-82
2021/11/16 06:24:41;;;;;;;29.67;11.65;;;;;;;;;;5022226;28;20045;-82
2021/11/16 06:27:08;;;;;;;27.48;11.18;;;;;;;;;;5019781;28;20073;-84
2021/11/16 06:29:35;;;;;;;23.88;9.60;;;;;;;;;;5019564;28;20141;-82
2021/11/16 06:32:02;;;;;;;28.80;10.35;;;;;;;;;;5021348;28;20074;-81
2021/11/16 06:34:28;;;;;;;40.83;11.07;;;;;;;;;;5019327;28;20046;-83
2021/11/16 06:36:56;;;;;;;26.05;10.52;;;;;;;;;;5019388;28;20056;-81
2021/11/16 06:39:23;;;;;;;23.08;10.43;;;;;;;;;;5020132;28;20053;-82
2021/11/16 06:41:50;;;;;;;26.98;11.40;;;;;;;;;;5019362;28;20057;-81
2021/11/16 06:44:21;;;;;;;27.60;11.85;;;;;;;;;;5019761;28;20076;-83
2021/11/16 06:46:48;;;;;;;28.48;12.93;;;;;;;;;;5020197;28;20045;-82
2021/11/16 06:49:16;;;;;;;26.80;10.55;;;;;;;;;;5019879;28;20493;-82
2021/11/16 06:51:44;;;;;;;27.65;11.18;;;;;;;;;;5021611;28;20072;-83
2021/11/16 06:54:14;;;;;;;24.35;10.25;;;;;;;;;;5019799;28;20115;-83
2021/11/16 06:56:42;;;;;;;26.58;11.00;;;;;;;;;;5020478;28;20046;-82
2021/11/16 06:59:09;;;;;;;22.10;10.23;;;;;;;;;;5021899;28;20061;-82
2021/11/16 07:01:37;;;;;;;25.75;10.35;;;;;;;;;;5019363;28;20053;-82
2021/11/16 07:04:09;;;;;;;25.33;10.27;;;;;;;;;;5020308;28;20046;-81
2021/11/16 07:06:36;;;;;;;21.83;9.25;;;;;;;;;;5022320;28;20942;-81
2021/11/16 07:09:04;;;;;;;25.60;9.32;;;;;;;;;;5020384;28;20104;-80
2021/11/16 07:11:32;;;;;;;22.65;9.50;;;;;;;;;;5023569;28;20089;-81
2021/11/16 07:14:02;;;;;;;23.23;9.73;;;;;;;;;;5021253;28;20491;-84
2021/11/16 07:16:32;;;;;;;22.60;11.07;;;;;;;;;;5017178;28;20464;-81
2021/11/16 07:19:01;;;;;;;27.08;8.57;;;;;;;;;;5017136;28;20408;-82
2021/11/16 07:21:28;;;;;;;20.27;9.38;;;;;;;;;;5018543;28;20053;-81
2021/11/16 07:24:03;;;;;;;23.33;8.93;;;;;;;;;;5020888;28;20050;-82
2021/11/16 07:26:30;;;;;;;21.15;8.57;;;;;;;;;;5017756;28;20053;-82
2021/11/16 07:28:58;;;;;;;18.48;8.95;;;;;;;;;;5018826;28;20473;-82
2021/11/16 07:31:26;;;;;;;22.00;9.30;;;;;;;;;;5019178;28;20407;-80
2021/11/16 07:33:53;;;;;;;22.08;9.38;;;;;;;;;;5017963;28;20042;-82
2021/11/16 07:36:20;;;;;;;20.38;8.45;;;;;;;;;;4997931;28;20057;-81
2021/11/16 07:38:48;;;;;;;18.67;8.40;;;;;;;;;;5017935;28;20142;-82
2021/11/16 07:41:22;;;;;;;19.35;8.35;;;;;;;;;;5015439;28;20153;-82
2021/11/16 07:43:48;;;;;;;20.08;7.97;;;;;;;;;;5016840;28;20509;-80
2021/11/16 07:46:16;;;;;;;20.77;8.68;;;;;;;;;;5017704;28;20049;-80
2021/11/16 07:48:43;;;;;;;21.83;9.18;;;;;;;;;;5016131;28;20077;-81
2021/11/16 07:51:13;;;;;;;22.15;8.43;;;;;;;;;;5016869;28;20069;-82
2021/11/16 07:53:41;;;;;;;22.17;9.75;;;;;;;;;;5018233;28;20052;-82
2021/11/16 07:56:09;;;;;;;20.50;8.52;;;;;;;;;;5017891;28;20042;-80
2021/11/16 07:58:38;;;;;;;27.20;12.02;;;;;;;;;;5017728;28;20073;-79
2021/11/16 08:01:08;;;;;;;19.40;8.65;;;;;;;;;;5015933;28;21402;-81
2021/11/16 08:03:43;;;;;;;20.48;9.23;;;;;;;;;;5015408;28;20084;-80
2021/11/16 08:06:15;;;;;;;20.30;8.73;;;;;;;;;;5016658;28;20061;-80
2021/11/16 08:08:55;;;;;;;20.63;8.85;;;;;;;;;;5017468;28;20073;-80
2021/11/16 08:11:27;;;;;;;18.10;8.07;;;;;;;;;;5016258;28;20042;-81
2021/11/16 08:13:56;;;;;;;21.40;8.60;;;;;;;;;;5018101;28;20046;-80
2021/11/16 08:16:24;;;;;;;17.35;8.13;;;;;;;;;;5020004;28;20054;-80
2021/11/16 08:18:56;;;;;;;22.33;8.52;;;;;;;;;;5020393;28;20042;-79
2021/11/16 08:21:23;;;;;;;18.95;8.27;;;;;;;;;;5019100;28;20053;-81
2021/11/16 08:23:56;;;;;;;17.60;7.90;;;;;;;;;;5020017;28;20053;-80
2021/11/16 08:26:25;;;;;;;18.15;8.50;;;;;;;;;;5019022;28;21092;-80
2021/11/16 08:28:52;;;;;;;18.98;8.48;;;;;;;;;;5020271;28;20069;-81
2021/11/16 08:31:20;;;;;;;18.77;9.02;;;;;;;;;;5020880;28;20046;-80
2021/11/16 08:33:47;;;;;;;21.83;8.23;;;;;;;;;;5020996;28;20052;-81
2021/11/16 08:36:15;;;;;;;16.00;7.70;;;;;;;;;;5019599;28;20112;-81
2021/11/16 08:38:43;;;;;;;18.25;8.85;;;;;;;;;;5018829;28;20072;-81
2021/11/16 08:41:15;;;;;;;17.50;8.63;;;;;;;;;;5018471;28;20053;-80
2021/11/16 08:43:42;;;;;;;18.67;8.40;;;;;;;;;;5019435;28;20085;-82
2021/11/16 08:46:14;;;;;;;18.67;8.35;;;;;;;;;;5020624;28;20041;-82
2021/11/16 08:48:47;;;;;;;21.42;9.55;;;;;;;;;;5020044;28;20046;-80
2021/11/16 08:51:17;;;;;;;18.15;8.13;;;;;;;;;;5019459;28;20042;-80
2021/11/16 08:53:45;;;;;;;17.35;8.20;;;;;;;;;;5016754;28;20046;-80
2021/11/16 08:56:15;;;;;;;17.63;7.78;;;;;;;;;;5019822;28;20125;-82
2021/11/16 08:58:41;;;;;;;18.52;8.77;;;;;;;;;;5020160;28;20042;-79
2021/11/16 09:01:09;;;;;;;18.83;8.15;;;;;;;;;;5020663;28;20054;-81
2021/11/16 09:03:39;;;;;;;19.50;8.70;;;;;;;;;;5019259;28;20081;-81
2021/11/16 09:06:17;;;;;;;17.35;9.43;;;;;;;;;;5021399;28;20037;-81
2021/11/16 09:08:45;;;;;;;18.05;7.95;;;;;;;;;;5021038;28;20065;-81
2021/11/16 09:11:14;;;;;;;16.88;7.97;;;;;;;;;;5019610;28;20109;-81
2021/11/16 09:13:42;;;;;;;14.68;8.07;;;;;;;;;;5020260;28;20100;-80
2021/11/16 09:16:11;;;;;;;16.70;7.00;;;;;;;;;;5019688;28;20046;-80
2021/11/16 09:18:39;;;;;;;22.50;8.07;;;;;;;;;;5019770;28;20041;-82
2021/11/16 09:21:08;;;;;;;17.45;7.60;;;;;;;;;;5019967;28;20054;-80
2021/11/16 09:23:39;;;;;;;15.35;7.18;;;;;;;;;;5017472;28;20108;-81
2021/11/16 09:26:16;;;;;;;20.25;7.35;;;;;;;;;;5017053;28;20058;-80
2021/11/16 09:28:49;;;;;;;16.02;6.80;;;;;;;;;;5020093;28;20042;-81
2021/11/16 09:31:25;;;;;;;15.00;6.70;;;;;;;;;;5020281;28;20042;-81
2021/11/16 09:33:52;;;;;;;;;;;;;;;;;;5018219;28;20076;-81
2021/11/16 09:36:23;;;;;;;;;;;;;;;;;;5018003;28;19952;-80
2021/11/16 09:38:53;;;;;;;13.23;6.63;;;;;;;;;;5016890;28;19968;-79
2021/11/16 09:41:31;;;;;;;14.20;6.45;;;;;;;;;;5017494;28;20108;-81
2021/11/16 09:44:00;;;;;;;13.40;6.38;;;;;;;;;;5016756;28;20077;-81
2021/11/16 09:46:26;;;;;;;13.68;6.85;;;;;;;;;;5018943;28;20049;-82
2021/11/16 09:48:58;;;;;;;11.93;6.00;;;;;;;;;;5019159;28;20119;-81
2021/11/16 09:51:24;;;;;;;12.38;6.53;;;;;;;;;;5019282;28;20053;-80
2021/11/16 09:54:01;;;;;;;16.13;7.32;;;;;;;;;;5018565;28;20122;-81
2021/11/16 09:56:29;;;;;;;15.68;7.07;;;;;;;;;;5019134;28;20141;-80
2021/11/16 09:58:57;;;;;;;14.27;6.95;;;;;;;;;;5018324;28;20522;-79
2021/11/16 10:01:26;;;;;;;11.77;6.40;;;;;;;;;;5019224;28;20074;-79
2021/11/16 10:04:11;;;;;;;15.65;7.53;;;;;;;;;;5019102;28;20074;-79
2021/11/16 10:06:38;;;;;;;13.75;6.13;;;;;;;;;;5018256;28;21448;-80
2021/11/16 10:09:07;;;;;;;14.32;6.40;;;;;;;;;;5020090;28;20045;-81
2021/11/16 10:11:40;;;;;;;13.23;6.03;;;;;;;;;;5020532;28;20099;-81
2021/11/16 10:14:07;;;;;;;14.43;6.60;;;;;;;;;;5018647;28;20080;-81
2021/11/16 10:16:33;;;;;;;13.77;6.10;;;;;;;;;;5017398;28;20455;-81
2021/11/16 10:19:00;;;;;;;12.02;5.15;;;;;;;;;;5018912;28;20129;-81
2021/11/16 10:21:26;;;;;;;12.10;5.28;;;;;;;;;;5019830;28;20049;-80
2021/11/16 10:23:55;;;;;;;10.85;4.22;;;;;;;;;;5017939;28;20081;-81
2021/11/16 10:26:31;;;;;;;11.85;5.13;;;;;;;;;;5017215;28;20209;-81
2021/11/16 10:28:58;;;;;;;12.77;5.68;;;;;;;;;;5018142;28;20076;-80
2021/11/16 10:31:28;;;;;;;13.38;5.93;;;;;;;;;;5017338;28;20042;-80
2021/11/16 10:33:56;;;;;;;12.95;5.32;;;;;;;;;;5018188;28;20415;-80
2021/11/16 10:36:23;;;;;;;13.05;6.15;;;;;;;;;;5017532;28;20042;-81
2021/11/16 10:38:52;;;;;;;12.88;4.43;;;;;;;;;;5017367;28;20062;-81
2021/11/16 10:41:20;;;;;;;9.82;4.90;;;;;;;;;;5017725;28;20132;-81
2021/11/16 10:43:56;;;;;;;14.23;4.25;;;;;;;;;;5017494;28;20409;-81
2021/11/16 10:46:24;;;;;;;10.68;5.68;;;;;;;;;;5016962;28;20042;-80
2021/11/16 10:48:54;;;;;;;13.05;5.43;;;;;;;;;;5019735;28;20050;-81
2021/11/16 10:51:21;;;;;;;12.93;5.20;;;;;;;;;;5019253;28;20052;-80
2021/11/16 10:53:49;;;;;;;9.18;4.35;;;;;;;;;;5019404;28;20053;-80
2021/11/16 10:56:17;;;;;;;11.88;5.60;;;;;;;;;;5019256;28;20077;-81
2021/11/16 10:58:44;;;;;;;16.95;6.13;;;;;;;;;;5018439;28;20050;-78
2021/11/16 11:01:14;;;;;;;15.98;5.10;;;;;;;;;;5018882;28;20061;-82
2021/11/16 11:03:44;;;;;;;13.90;6.22;;;;;;;;;;5017993;28;20046;-81
2021/11/16 11:06:14;;;;;;;15.48;6.30;;;;;;;;;;5017124;28;20121;-81
2021/11/16 11:08:44;;;;;;;12.65;5.65;;;;;;;;;;5016826;28;20041;-81
2021/11/16 11:11:17;;;;;;;16.20;5.68;;;;;;;;;;5016584;28;20041;-79
2021/11/16 11:13:45;;;;;;;13.45;6.28;;;;;;;;;;5017780;28;20565;-80
2021/11/16 11:16:15;;;;;;;13.02;6.90;;;;;;;;;;5016487;28;20074;-82
2021/11/16 11:18:46;;;;;;;15.38;5.97;;;;;;;;;;5018837;28;20483;-81
2021/11/16 11:21:24;;;;;;;12.27;6.38;;;;;;;;;;5016689;28;20131;-82
2021/11/16 11:23:54;;;;;;;12.38;6.18;;;;;;;;;;5015689;28;20046;-80
2021/11/16 11:26:37;;;;;;;13.88;6.18;;;;;;;;;;5016768;28;20495;-80
2021/11/16 11:29:18;;;;;;;16.77;7.40;;;;;;;;;;5016565;28;20116;-81
2021/11/16 11:31:48;;;;;;;15.63;6.53;;;;;;;;;;5017579;28;20069;-81
2021/11/16 11:34:14;;;;;;;14.77;6.68;;;;;;;;;;5016954;28;20057;-81
2021/11/16 11:36:42;;;;;;;15.85;7.85;;;;;;;;;;5016514;28;20073;-81
2021/11/16 11:39:17;;;;;;;15.23;7.20;;;;;;;;;;5016838;28;20046;-81
2021/11/16 11:41:49;;;;;;;13.05;7.13;;;;;;;;;;5015269;28;20069;-80
2021/11/16 11:44:17;;;;;;;12.05;6.35;;;;;;;;;;5018984;28;20459;-80
2021/11/16 11:46:50;;;;;;;16.38;7.10;;;;;;;;;;5017516;28;20053;-81
2021/11/16 11:49:17;;;;;;;13.95;7.18;;;;;;;;;;5018915;28;20046;-80
2021/11/16 11:51:44;;;;;;;15.35;7.95;;;;;;;;;;5020923;28;20050;-80
2021/11/16 11:54:11;;;;;;;12.48;6.55;;;;;;;;;;5021063;28;20112;-80
2021/11/16 11:56:38;;;;;;;16.05;7.13;;;;;;;;;;5021532;28;20080;-80
2021/11/16 11:59:05;;;;;;;17.42;8.10;;;;;;;;;;5020858;28;20065;-80
2021/11/16 12:01:31;;;;;;;15.13;7.68;;;;;;;;;;5020837;28;20146;-81
2021/11/16 12:04:00;;;;;;;17.83;7.20;;;;;;;;;;5020843;28;20050;-80
2021/11/16 12:06:29;;;;;;;13.00;6.50;;;;;;;;;;5020304;28;20076;-82
2021/11/16 12:08:58;;;;;;;14.35;6.80;;;;;;;;;;5021913;28;20038;-79
2021/11/16 12:11:24;;;;;;;14.65;6.53;;;;;;;;;;5020305;28;20559;-81
2021/11/16 12:13:53;;;;;;;13.05;6.07;;;;;;;;;;5020206;28;20556;-80
2021/11/16 12:16:31;;;;;;;13.38;6.93;;;;;;;;;;5019555;28;20042;-79
2021/11/16 12:19:06;;;;;;;12.65;7.15;;;;;;;;;;5019508;28;20828;-81
2021/11/16 12:21:35;;;;;;;13.68;6.88;;;;;;;;;;5020518;28;20073;-80
2021/11/16 12:24:03;;;;;;;10.45;5.28;;;;;;;;;;5021014;28;20459;-80
2021/11/16 12:26:32;;;;;;;15.40;6.40;;;;;;;;;;5019124;28;20046;-81
2021/11/16 12:29:12;;;;;;;12.48;6.68;;;;;;;;;;5019541;28;20054;-80
2021/11/16 12:31:39;;;;;;;12.52;6.15;;;;;;;;;;5020730;28;20085;-80
2021/11/16 12:34:07;;;;;;;15.18;6.47;;;;;;;;;;5020851;28;20069;-80
2021/11/16 12:36:49;;;;;;;13.23;6.10;;;;;;;;;;5019012;28;20056;-80
2021/11/16 12:39:18;;;;;;;14.90;6.03;;;;;;;;;;5020597;28;20085;-79
2021/11/16 12:41:46;;;;;;;12.48;6.35;;;;;;;;;;5021760;28;20076;-79
2021/11/16 12:44:14;;;;;;;12.88;6.00;;;;;;;;;;5019331;28;21035;-80
2021/11/16 12:46:42;;;;;;;13.10;6.22;;;;;;;;;;5020512;28;20065;-80
2021/11/16 12:49:11;;;;;;;12.90;5.85;;;;;;;;;;5021056;28;20045;-82
2021/11/16 12:51:39;;;;;;;14.13;6.03;;;;;;;;;;5021325;28;20042;-82
2021/11/16 12:54:08;;;;;;;15.02;6.40;;;;;;;;;;5020587;28;20046;-81
2021/11/16 12:57:10;;;;;;;11.65;5.68;;;;;;;;;;5019205;28;20074;-81
2021/11/16 12:59:53;;;;;;;12.93;6.03;;;;;;;;;;5019215;28;20045;-82
2021/11/16 13:02:23;;;;;;;10.68;5.65;;;;;;;;;;5019550;28;20050;-82
2021/11/16 13:04:54;;;;;;;12.55;6.75;;;;;;;;;;5019881;28;20077;-81
2021/11/16 13:07:26;;;;;;;13.88;7.28;;;;;;;;;;5018677;28;20049;-80
2021/11/16 13:09:54;;;;;;;9.55;4.85;;;;;;;;;;5019753;28;20053;-82
2021/11/16 13:12:45;;;;;;;13.95;6.63;;;;;;;;;;5018224;28;20061;-81
2021/11/16 13:15:21;;;;;;;11.75;5.30;;;;;;;;;;5019366;28;20066;-81
2021/11/16 13:17:51;;;;;;;15.20;6.53;;;;;;;;;;5020426;28;20056;-81
2021/11/16 13:20:30;;;;;;;13.68;6.07;;;;;;;;;;5017753;28;20065;-81
2021/11/16 13:22:58;;;;;;;14.00;6.28;;;;;;;;;;5020982;28;20069;-81
2021/11/16 13:25:43;;;;;;;11.57;5.90;;;;;;;;;;5019144;28;20058;-81
2021/11/16 13:28:14;;;;;;;12.25;5.65;;;;;;;;;;5018473;28;20046;-80
2021/11/16 13:30:41;;;;;;;11.25;5.68;;;;;;;;;;5018854;28;20048;-80
2021/11/16 13:33:42;;;;;;;12.80;5.43;;;;;;;;;;5018385;28;20129;-82
2021/11/16 13:36:14;;;;;;;11.45;5.72;;;;;;;;;;5018772;28;20053;-81
2021/11/16 13:38:57;;;;;;;10.75;5.22;;;;;;;;;;5018520;28;20453;-79
2021/11/16 13:41:45;;;;;;;11.70;5.68;;;;;;;;;;5018713;28;20088;-80
2021/11/16 13:44:15;;;;;;;11.70;6.07;;;;;;;;;;5018058;28;20050;-80
2021/11/16 13:46:42;;;;;;;11.68;5.85;;;;;;;;;;5019803;28;20070;-81
2021/11/16 13:49:09;;;;;;;10.77;5.55;;;;;;;;;;5017731;28;20096;-80
2021/11/16 13:51:38;;;;;;;11.10;5.85;;;;;;;;;;5018714;28;20084;-80
2021/11/16 13:54:05;;;;;;;11.50;5.88;;;;;;;;;;5019127;28;20049;-80
2021/11/16 13:56:33;;;;;;;11.75;5.35;;;;;;;;;;5019045;28;20113;-81
2021/11/16 13:58:59;;;;;;;15.05;6.78;;;;;;;;;;5018705;28;20066;-81
2021/11/16 14:01:30;;;;;;;14.57;5.78;;;;;;;;;;5019421;28;20096;-80
2021/11/16 14:04:10;;;;;;;11.93;5.88;;;;;;;;;;5018511;28;20457;-78
2021/11/16 14:06:38;;;;;;;11.27;5.70;;;;;;;;;;5017439;28;20533;-80
2021/11/16 14:09:13;;;;;;;12.35;6.00;;;;;;;;;;5017242;28;20041;-81
2021/11/16 14:11:56;;;;;;;11.27;5.53;;;;;;;;;;5017258;28;20557;-80
2021/11/16 14:14:25;;;;;;;12.68;6.43;;;;;;;;;;5015328;28;20077;-78
2021/11/16 14:16:52;;;;;;;14.68;6.68;;;;;;;;;;5019071;28;20482;-82
2021/11/16 14:19:19;;;;;;;14.68;6.03;;;;;;;;;;5019146;28;20090;-81
2021/11/16 14:21:49;;;;;;;12.27;5.50;;;;;;;;;;5021669;28;20061;-81
2021/11/16 14:24:25;;;;;;;13.82;5.72;;;;;;;;;;5020648;28;20096;-81
2021/11/16 14:26:52;;;;;;;12.20;5.68;;;;;;;;;;5019188;28;20046;-82
2021/11/16 14:29:19;;;;;;;12.32;6.90;;;;;;;;;;5018585;28;20051;-82
2021/11/16 14:31:45;;;;;;;10.30;4.68;;;;;;;;;;5020101;28;20042;-81
2021/11/16 14:34:14;;;;;;;11.75;5.82;;;;;;;;;;5018606;28;20125;-81
2021/11/16 14:36:42;;;;;;;12.07;5.07;;;;;;;;;;5016692;28;20117;-80
2021/11/16 14:39:13;;;;;;;10.90;5.82;;;;;;;;;;5018937;28;20434;-81
2021/11/16 14:41:41;;;;;;;14.00;5.85;;;;;;;;;;5018527;28;20045;-80